Terminal Aerodrome Forecast
Issued by NWS

Home | Current Version | Previous Version | Text Only | Print | Product List | Glossary On
Versions: 1 2 3 4 5 6 7 8 9 10 11 12 13 14
000
FTAK31 PANC 231146 AAA
TAFADU
TAF AMD
PADU 231146Z 2312/2412 30006KT P6SM -SHSN SCT020 BKN040
     FM231700 28008G12KT 3SM -SHSN BKN025
     FM240400 VRB05KT P6SM BKN045
     FM240900 15008KT P6SM VCSH BKN080=

USA.gov is the U.S. government's official web portal to all federal, state and local government web resources and services.